sensor_id;sensor_type;location;lat;lon;timestamp;temperature;humidity
61386;DHT22;47256;18.904;-99.054;2022-09-16T19:34:45;28.50;99.90
61386;DHT22;47256;18.904;-99.054;2022-09-16T19:37:16;28.30;99.90
61386;DHT22;47256;18.904;-99.054;2022-09-16T19:39:47;28.10;99.90
61386;DHT22;47256;18.904;-99.054;2022-09-16T19:42:16;28.00;99.90
61386;DHT22;47256;18.904;-99.054;2022-09-16T19:44:43;27.80;99.90
61386;DHT22;47256;18.904;-99.054;2022-09-16T19:47:10;27.80;99.90
61386;DHT22;47256;18.904;-99.054;2022-09-16T19:49:38;27.60;99.90
61386;DHT22;47256;18.904;-99.054;2022-09-16T19:52:05;27.60;99.90
61386;DHT22;47256;18.904;-99.054;2022-09-16T19:54:33;27.60;99.90
61386;DHT22;47256;18.904;-99.054;2022-09-16T19:57:00;27.60;99.90
61386;DHT22;47256;18.904;-99.054;2022-09-16T19:59:27;27.50;99.90
61386;DHT22;47256;18.904;-99.054;2022-09-16T20:01:54;27.50;99.90
61386;DHT22;47256;18.904;-99.054;2022-09-16T20:04:22;27.30;99.90
61386;DHT22;47256;18.904;-99.054;2022-09-16T20:06:49;27.20;99.90
61386;DHT22;47256;18.904;-99.054;2022-09-16T20:09:17;27.10;99.90
61386;DHT22;47256;18.904;-99.054;2022-09-16T20:11:47;27.00;99.90
61386;DHT22;47256;18.904;-99.054;2022-09-16T20:14:20;26.90;99.90
61386;DHT22;47256;18.904;-99.054;2022-09-16T20:16:50;26.80;99.90
61386;DHT22;47256;18.904;-99.054;2022-09-16T20:19:19;26.60;99.90
61386;DHT22;47256;18.904;-99.054;2022-09-16T20:21:47;26.30;99.90
61386;DHT22;47256;18.904;-99.054;2022-09-16T20:30:15;25.80;99.90
61386;DHT22;47256;18.904;-99.054;2022-09-16T20:32:45;25.80;99.90
61386;DHT22;47256;18.904;-99.054;2022-09-16T20:35:14;25.80;99.90
61386;DHT22;47256;18.904;-99.054;2022-09-16T20:37:47;25.90;99.90
61386;DHT22;47256;18.904;-99.054;2022-09-16T20:40:19;25.90;99.90
61386;DHT22;47256;18.904;-99.054;2022-09-16T20:42:48;26.00;99.90
61386;DHT22;47256;18.904;-99.054;2022-09-16T20:45:15;26.00;99.90
61386;DHT22;47256;18.904;-99.054;2022-09-16T20:47:43;26.00;99.90
61386;DHT22;47256;18.904;-99.054;2022-09-16T20:50:11;26.00;99.90
61386;DHT22;47256;18.904;-99.054;2022-09-16T20:52:38;26.00;99.90
61386;DHT22;47256;18.904;-99.054;2022-09-16T20:55:09;25.90;99.90
61386;DHT22;47256;18.904;-99.054;2022-09-16T20:57:37;25.90;99.90
61386;DHT22;47256;18.904;-99.054;2022-09-16T21:00:05;25.90;99.90
61386;DHT22;47256;18.904;-99.054;2022-09-16T21:02:33;25.90;99.90
61386;DHT22;47256;18.904;-99.054;2022-09-16T21:05:10;25.90;99.90
61386;DHT22;47256;18.904;-99.054;2022-09-16T21:07:41;25.90;99.90
61386;DHT22;47256;18.904;-99.054;2022-09-16T21:10:08;25.90;99.90
61386;DHT22;47256;18.904;-99.054;2022-09-16T21:12:37;25.90;99.90
61386;DHT22;47256;18.904;-99.054;2022-09-16T21:15:06;25.90;99.90
61386;DHT22;47256;18.904;-99.054;2022-09-16T21:17:35;25.90;99.90
61386;DHT22;47256;18.904;-99.054;2022-09-16T21:20:02;25.90;99.90
61386;DHT22;47256;18.904;-99.054;2022-09-16T21:22:30;25.90;99.90
61386;DHT22;47256;18.904;-99.054;2022-09-16T21:24:57;25.90;99.90
61386;DHT22;47256;18.904;-99.054;2022-09-16T21:27:25;25.90;99.90
61386;DHT22;47256;18.904;-99.054;2022-09-16T21:29:56;25.80;99.90
61386;DHT22;47256;18.904;-99.054;2022-09-16T21:32:25;25.70;99.90
61386;DHT22;47256;18.904;-99.054;2022-09-16T21:34:52;25.60;99.90
61386;DHT22;47256;18.904;-99.054;2022-09-16T21:37:21;25.60;99.90
61386;DHT22;47256;18.904;-99.054;2022-09-16T21:39:48;25.50;99.90
61386;DHT22;47256;18.904;-99.054;2022-09-16T21:42:18;25.50;99.90
61386;DHT22;47256;18.904;-99.054;2022-09-16T21:44:45;25.40;99.90
61386;DHT22;47256;18.904;-99.054;2022-09-16T21:47:13;25.30;99.90
61386;DHT22;47256;18.904;-99.054;2022-09-16T21:49:40;25.30;99.90
61386;DHT22;47256;18.904;-99.054;2022-09-16T21:52:09;25.20;99.90
61386;DHT22;47256;18.904;-99.054;2022-09-16T21:54:36;25.20;99.90
61386;DHT22;47256;18.904;-99.054;2022-09-16T21:57:03;25.10;99.90
61386;DHT22;47256;18.904;-99.054;2022-09-16T21:59:30;25.10;99.90
61386;DHT22;47256;18.904;-99.054;2022-09-16T22:01:57;25.10;99.90
61386;DHT22;47256;18.904;-99.054;2022-09-16T22:04:25;25.10;99.90
61386;DHT22;47256;18.904;-99.054;2022-09-16T22:06:53;25.10;99.90
61386;DHT22;47256;18.904;-99.054;2022-09-16T22:09:21;25.20;99.90
61386;DHT22;47256;18.904;-99.054;2022-09-16T22:11:48;25.20;99.90
61386;DHT22;47256;18.904;-99.054;2022-09-16T22:14:19;25.20;99.90
61386;DHT22;47256;18.904;-99.054;2022-09-16T22:16:46;25.20;99.90
61386;DHT22;47256;18.904;-99.054;2022-09-16T22:19:16;25.20;99.90
61386;DHT22;47256;18.904;-99.054;2022-09-16T22:21:47;25.20;99.90
61386;DHT22;47256;18.904;-99.054;2022-09-16T22:24:16;25.20;99.90
61386;DHT22;47256;18.904;-99.054;2022-09-16T22:26:47;25.20;99.90
61386;DHT22;47256;18.904;-99.054;2022-09-16T22:29:14;25.20;99.90
61386;DHT22;47256;18.904;-99.054;2022-09-16T22:31:43;25.20;99.90
61386;DHT22;47256;18.904;-99.054;2022-09-16T22:34:12;25.10;99.90
61386;DHT22;47256;18.904;-99.054;2022-09-16T22:36:43;25.20;99.90
61386;DHT22;47256;18.904;-99.054;2022-09-16T22:39:16;25.10;99.90
61386;DHT22;47256;18.904;-99.054;2022-09-16T22:41:49;25.10;99.90
61386;DHT22;47256;18.904;-99.054;2022-09-16T22:44:16;25.10;99.90
61386;DHT22;47256;18.904;-99.054;2022-09-16T22:46:47;25.10;99.90
61386;DHT22;47256;18.904;-99.054;2022-09-16T22:49:15;25.10;99.90
61386;DHT22;47256;18.904;-99.054;2022-09-16T22:51:42;25.10;99.90
61386;DHT22;47256;18.904;-99.054;2022-09-16T22:54:11;25.00;99.90
61386;DHT22;47256;18.904;-99.054;2022-09-16T22:56:40;25.10;99.90
61386;DHT22;47256;18.904;-99.054;2022-09-16T22:59:15;25.00;99.90
61386;DHT22;47256;18.904;-99.054;2022-09-16T23:01:43;25.00;99.90
61386;DHT22;47256;18.904;-99.054;2022-09-16T23:04:11;25.00;99.90
61386;DHT22;47256;18.904;-99.054;2022-09-16T23:06:40;25.00;99.90
61386;DHT22;47256;18.904;-99.054;2022-09-16T23:09:09;25.10;99.90
61386;DHT22;47256;18.904;-99.054;2022-09-16T23:11:37;25.10;99.90
61386;DHT22;47256;18.904;-99.054;2022-09-16T23:14:04;25.10;99.90
61386;DHT22;47256;18.904;-99.054;2022-09-16T23:16:34;25.10;99.90
61386;DHT22;47256;18.904;-99.054;2022-09-16T23:19:04;25.10;99.90
61386;DHT22;47256;18.904;-99.054;2022-09-16T23:21:31;25.10;99.90
61386;DHT22;47256;18.904;-99.054;2022-09-16T23:24:02;25.00;99.90
61386;DHT22;47256;18.904;-99.054;2022-09-16T23:26:36;25.00;99.90
61386;DHT22;47256;18.904;-99.054;2022-09-16T23:29:06;25.00;99.90
61386;DHT22;47256;18.904;-99.054;2022-09-16T23:31:37;25.10;99.90
61386;DHT22;47256;18.904;-99.054;2022-09-16T23:34:08;25.00;99.90
61386;DHT22;47256;18.904;-99.054;2022-09-16T23:36:40;25.00;99.90
61386;DHT22;47256;18.904;-99.054;2022-09-16T23:39:08;25.00;99.90
61386;DHT22;47256;18.904;-99.054;2022-09-16T23:41:36;25.00;99.90
61386;DHT22;47256;18.904;-99.054;2022-09-16T23:44:05;25.00;99.90
61386;DHT22;47256;18.904;-99.054;2022-09-16T23:46:32;25.10;99.90
61386;DHT22;47256;18.904;-99.054;2022-09-16T23:49:01;25.10;99.90
61386;DHT22;47256;18.904;-99.054;2022-09-16T23:51:29;25.00;99.90
61386;DHT22;47256;18.904;-99.054;2022-09-16T23:53:58;25.00;99.90
61386;DHT22;47256;18.904;-99.054;2022-09-16T23:56:26;24.90;99.90
61386;DHT22;47256;18.904;-99.054;2022-09-16T23:58:57;25.00;99.90
